sensor_id;sensor_type;location;lat;lon;timestamp;P1;durP1;ratioP1;P2;durP2;ratioP2
57085;SDS011;42964;42.910;23.792;2023-03-31T00:01:34;39.17;;;27.13;;
57085;SDS011;42964;42.910;23.792;2023-03-31T00:06:35;39.47;;;26.63;;
57085;SDS011;42964;42.910;23.792;2023-03-31T00:11:39;36.15;;;23.95;;
57085;SDS011;42964;42.910;23.792;2023-03-31T00:16:38;35.53;;;20.95;;
57085;SDS011;42964;42.910;23.792;2023-03-31T00:21:37;35.10;;;20.83;;
57085;SDS011;42964;42.910;23.792;2023-03-31T00:26:40;34.95;;;19.90;;
57085;SDS011;42964;42.910;23.792;2023-03-31T00:31:39;34.17;;;19.88;;
57085;SDS011;42964;42.910;23.792;2023-03-31T00:36:38;28.67;;;18.63;;
57085;SDS011;42964;42.910;23.792;2023-03-31T00:41:44;25.95;;;16.48;;
57085;SDS011;42964;42.910;23.792;2023-03-31T00:46:56;37.35;;;23.58;;
57085;SDS011;42964;42.910;23.792;2023-03-31T00:57:17;32.17;;;18.63;;
57085;SDS011;42964;42.910;23.792;2023-03-31T01:02:16;26.48;;;16.15;;
57085;SDS011;42964;42.910;23.792;2023-03-31T01:12:27;12.73;;;6.80;;
57085;SDS011;42964;42.910;23.792;2023-03-31T01:17:28;6.38;;;3.45;;
57085;SDS011;42964;42.910;23.792;2023-03-31T01:48:43;8.50;;;3.33;;
57085;SDS011;42964;42.910;23.792;2023-03-31T01:54:20;5.40;;;2.28;;
57085;SDS011;42964;42.910;23.792;2023-03-31T02:04:42;9.32;;;2.95;;
57085;SDS011;42964;42.910;23.792;2023-03-31T02:09:49;18.13;;;9.45;;
57085;SDS011;42964;42.910;23.792;2023-03-31T02:14:53;13.07;;;7.82;;
57085;SDS011;42964;42.910;23.792;2023-03-31T02:19:57;14.77;;;8.50;;
57085;SDS011;42964;42.910;23.792;2023-03-31T02:24:59;16.75;;;9.82;;
57085;SDS011;42964;42.910;23.792;2023-03-31T02:29:59;11.95;;;6.18;;
57085;SDS011;42964;42.910;23.792;2023-03-31T02:34:59;14.77;;;7.35;;
57085;SDS011;42964;42.910;23.792;2023-03-31T02:39:59;14.52;;;9.25;;
57085;SDS011;42964;42.910;23.792;2023-03-31T02:45:04;11.95;;;8.18;;
57085;SDS011;42964;42.910;23.792;2023-03-31T02:50:05;11.65;;;6.65;;
57085;SDS011;42964;42.910;23.792;2023-03-31T03:11:53;6.65;;;4.07;;
57085;SDS011;42964;42.910;23.792;2023-03-31T03:22:24;10.60;;;4.25;;
57085;SDS011;42964;42.910;23.792;2023-03-31T03:32:22;8.20;;;4.03;;
57085;SDS011;42964;42.910;23.792;2023-03-31T03:37:21;5.80;;;3.85;;
57085;SDS011;42964;42.910;23.792;2023-03-31T03:42:20;8.00;;;4.35;;
57085;SDS011;42964;42.910;23.792;2023-03-31T03:47:19;8.50;;;3.33;;
57085;SDS011;42964;42.910;23.792;2023-03-31T03:52:18;8.80;;;4.22;;
57085;SDS011;42964;42.910;23.792;2023-03-31T03:57:17;12.80;;;4.68;;
57085;SDS011;42964;42.910;23.792;2023-03-31T04:02:16;7.63;;;4.07;;
57085;SDS011;42964;42.910;23.792;2023-03-31T04:07:15;7.00;;;4.20;;
57085;SDS011;42964;42.910;23.792;2023-03-31T04:17:13;9.55;;;4.90;;
57085;SDS011;42964;42.910;23.792;2023-03-31T04:22:13;9.35;;;4.78;;
57085;SDS011;42964;42.910;23.792;2023-03-31T04:27:12;10.48;;;5.90;;
57085;SDS011;42964;42.910;23.792;2023-03-31T04:32:14;8.95;;;5.80;;
57085;SDS011;42964;42.910;23.792;2023-03-31T04:37:19;13.18;;;9.13;;
57085;SDS011;42964;42.910;23.792;2023-03-31T04:42:18;15.48;;;8.30;;
57085;SDS011;42964;42.910;23.792;2023-03-31T04:52:16;22.73;;;12.75;;
57085;SDS011;42964;42.910;23.792;2023-03-31T04:57:15;20.02;;;10.13;;
57085;SDS011;42964;42.910;23.792;2023-03-31T05:02:14;13.85;;;9.20;;
57085;SDS011;42964;42.910;23.792;2023-03-31T05:07:20;15.77;;;8.27;;
57085;SDS011;42964;42.910;23.792;2023-03-31T05:12:19;25.52;;;15.20;;
57085;SDS011;42964;42.910;23.792;2023-03-31T05:17:19;17.48;;;11.18;;
57085;SDS011;42964;42.910;23.792;2023-03-31T05:22:18;17.08;;;9.00;;
57085;SDS011;42964;42.910;23.792;2023-03-31T05:27:18;11.82;;;8.02;;
57085;SDS011;42964;42.910;23.792;2023-03-31T05:32:19;10.60;;;5.90;;
57085;SDS011;42964;42.910;23.792;2023-03-31T05:37:19;7.45;;;3.75;;
57085;SDS011;42964;42.910;23.792;2023-03-31T05:42:18;10.63;;;5.35;;
57085;SDS011;42964;42.910;23.792;2023-03-31T05:47:17;8.80;;;3.90;;
57085;SDS011;42964;42.910;23.792;2023-03-31T05:52:16;11.05;;;5.80;;
57085;SDS011;42964;42.910;23.792;2023-03-31T05:57:15;16.63;;;7.13;;
57085;SDS011;42964;42.910;23.792;2023-03-31T06:02:14;14.18;;;8.10;;
57085;SDS011;42964;42.910;23.792;2023-03-31T06:07:13;16.15;;;11.38;;
57085;SDS011;42964;42.910;23.792;2023-03-31T06:12:12;18.60;;;12.73;;
57085;SDS011;42964;42.910;23.792;2023-03-31T06:17:11;15.90;;;10.60;;
57085;SDS011;42964;42.910;23.792;2023-03-31T06:22:10;26.38;;;17.88;;
57085;SDS011;42964;42.910;23.792;2023-03-31T06:27:09;22.25;;;13.63;;
57085;SDS011;42964;42.910;23.792;2023-03-31T06:32:08;16.27;;;10.95;;
57085;SDS011;42964;42.910;23.792;2023-03-31T06:42:06;17.33;;;10.48;;
57085;SDS011;42964;42.910;23.792;2023-03-31T06:47:05;14.85;;;6.55;;
57085;SDS011;42964;42.910;23.792;2023-03-31T06:57:03;28.90;;;15.68;;
57085;SDS011;42964;42.910;23.792;2023-03-31T07:07:00;20.98;;;11.38;;
57085;SDS011;42964;42.910;23.792;2023-03-31T07:16:58;8.70;;;3.80;;
57085;SDS011;42964;42.910;23.792;2023-03-31T07:26:56;9.67;;;5.40;;
57085;SDS011;42964;42.910;23.792;2023-03-31T07:36:54;10.60;;;5.43;;
57085;SDS011;42964;42.910;23.792;2023-03-31T07:41:53;10.35;;;7.18;;
57085;SDS011;42964;42.910;23.792;2023-03-31T07:46:52;10.07;;;5.80;;
57085;SDS011;42964;42.910;23.792;2023-03-31T07:56:50;9.53;;;4.53;;
57085;SDS011;42964;42.910;23.792;2023-03-31T08:01:49;11.07;;;5.40;;
57085;SDS011;42964;42.910;23.792;2023-03-31T08:06:48;13.18;;;6.03;;
57085;SDS011;42964;42.910;23.792;2023-03-31T08:11:49;7.47;;;4.70;;
57085;SDS011;42964;42.910;23.792;2023-03-31T08:16:48;10.80;;;5.57;;
57085;SDS011;42964;42.910;23.792;2023-03-31T08:21:47;9.38;;;5.13;;
57085;SDS011;42964;42.910;23.792;2023-03-31T08:31:44;13.30;;;5.10;;
57085;SDS011;42964;42.910;23.792;2023-03-31T08:51:41;11.73;;;5.43;;
57085;SDS011;42964;42.910;23.792;2023-03-31T08:56:48;13.90;;;4.90;;
57085;SDS011;42964;42.910;23.792;2023-03-31T09:07:39;10.18;;;4.60;;
57085;SDS011;42964;42.910;23.792;2023-03-31T09:18:26;11.02;;;4.75;;
57085;SDS011;42964;42.910;23.792;2023-03-31T09:23:31;9.15;;;4.30;;
57085;SDS011;42964;42.910;23.792;2023-03-31T09:28:36;10.00;;;4.97;;
57085;SDS011;42964;42.910;23.792;2023-03-31T09:33:37;12.68;;;5.25;;
57085;SDS011;42964;42.910;23.792;2023-03-31T09:38:42;8.93;;;4.03;;
57085;SDS011;42964;42.910;23.792;2023-03-31T09:43:42;11.75;;;5.32;;
57085;SDS011;42964;42.910;23.792;2023-03-31T09:48:51;7.78;;;3.85;;
57085;SDS011;42964;42.910;23.792;2023-03-31T09:59:28;8.52;;;3.60;;
57085;SDS011;42964;42.910;23.792;2023-03-31T10:04:32;7.82;;;3.88;;
57085;SDS011;42964;42.910;23.792;2023-03-31T10:09:32;12.60;;;4.40;;
57085;SDS011;42964;42.910;23.792;2023-03-31T10:14:46;7.47;;;3.47;;
57085;SDS011;42964;42.910;23.792;2023-03-31T10:19:47;8.10;;;3.50;;
57085;SDS011;42964;42.910;23.792;2023-03-31T10:24:49;8.10;;;3.60;;
57085;SDS011;42964;42.910;23.792;2023-03-31T10:29:52;8.07;;;3.50;;
57085;SDS011;42964;42.910;23.792;2023-03-31T10:34:53;5.55;;;2.35;;
57085;SDS011;42964;42.910;23.792;2023-03-31T10:39:57;6.65;;;2.83;;
57085;SDS011;42964;42.910;23.792;2023-03-31T10:50:32;33.70;;;19.30;;
57085;SDS011;42964;42.910;23.792;2023-03-31T11:12:10;7.32;;;2.95;;
57085;SDS011;42964;42.910;23.792;2023-03-31T11:17:48;9.43;;;3.50;;
57085;SDS011;42964;42.910;23.792;2023-03-31T11:28:16;7.13;;;2.78;;
57085;SDS011;42964;42.910;23.792;2023-03-31T11:38:36;7.70;;;3.03;;
57085;SDS011;42964;42.910;23.792;2023-03-31T11:43:41;17.10;;;3.00;;
57085;SDS011;42964;42.910;23.792;2023-03-31T11:53:56;8.82;;;4.22;;
57085;SDS011;42964;42.910;23.792;2023-03-31T11:58:57;8.95;;;5.07;;
57085;SDS011;42964;42.910;23.792;2023-03-31T12:04:00;10.15;;;2.88;;
57085;SDS011;42964;42.910;23.792;2023-03-31T12:19:21;4.22;;;2.25;;
57085;SDS011;42964;42.910;23.792;2023-03-31T12:24:33;6.63;;;2.67;;
57085;SDS011;42964;42.910;23.792;2023-03-31T12:29:33;9.18;;;3.60;;
57085;SDS011;42964;42.910;23.792;2023-03-31T12:34:47;7.45;;;2.45;;
57085;SDS011;42964;42.910;23.792;2023-03-31T12:40:02;8.80;;;3.38;;
57085;SDS011;42964;42.910;23.792;2023-03-31T12:45:29;6.47;;;2.80;;
57085;SDS011;42964;42.910;23.792;2023-03-31T12:50:40;4.82;;;2.72;;
57085;SDS011;42964;42.910;23.792;2023-03-31T12:55:56;3.97;;;2.22;;
57085;SDS011;42964;42.910;23.792;2023-03-31T13:01:04;7.78;;;2.83;;
57085;SDS011;42964;42.910;23.792;2023-03-31T13:11:07;8.93;;;2.42;;
57085;SDS011;42964;42.910;23.792;2023-03-31T13:16:06;8.02;;;3.17;;
57085;SDS011;42964;42.910;23.792;2023-03-31T13:21:05;5.15;;;1.83;;
57085;SDS011;42964;42.910;23.792;2023-03-31T13:26:05;4.32;;;1.80;;
57085;SDS011;42964;42.910;23.792;2023-03-31T13:37:14;6.55;;;2.10;;
57085;SDS011;42964;42.910;23.792;2023-03-31T13:47:47;5.85;;;2.10;;
57085;SDS011;42964;42.910;23.792;2023-03-31T14:08:56;7.95;;;3.00;;
57085;SDS011;42964;42.910;23.792;2023-03-31T14:24:35;7.38;;;3.15;;
57085;SDS011;42964;42.910;23.792;2023-03-31T14:29:54;4.72;;;2.75;;
57085;SDS011;42964;42.910;23.792;2023-03-31T14:40:21;5.82;;;2.20;;
57085;SDS011;42964;42.910;23.792;2023-03-31T14:45:22;10.88;;;3.55;;
57085;SDS011;42964;42.910;23.792;2023-03-31T14:50:44;5.65;;;3.40;;
57085;SDS011;42964;42.910;23.792;2023-03-31T14:55:44;8.88;;;2.72;;
57085;SDS011;42964;42.910;23.792;2023-03-31T15:00:44;12.00;;;3.22;;
57085;SDS011;42964;42.910;23.792;2023-03-31T15:05:43;7.47;;;2.90;;
57085;SDS011;42964;42.910;23.792;2023-03-31T15:10:44;6.78;;;2.67;;
57085;SDS011;42964;42.910;23.792;2023-03-31T15:15:56;6.30;;;2.42;;
57085;SDS011;42964;42.910;23.792;2023-03-31T15:20:55;13.80;;;2.78;;
57085;SDS011;42964;42.910;23.792;2023-03-31T15:25:57;8.27;;;3.65;;
57085;SDS011;42964;42.910;23.792;2023-03-31T15:31:05;6.90;;;2.88;;
57085;SDS011;42964;42.910;23.792;2023-03-31T15:36:04;7.00;;;2.78;;
57085;SDS011;42964;42.910;23.792;2023-03-31T15:41:10;9.85;;;3.17;;
57085;SDS011;42964;42.910;23.792;2023-03-31T15:46:15;9.40;;;3.50;;
57085;SDS011;42964;42.910;23.792;2023-03-31T15:51:19;7.50;;;3.33;;
57085;SDS011;42964;42.910;23.792;2023-03-31T15:56:34;14.20;;;3.60;;
57085;SDS011;42964;42.910;23.792;2023-03-31T16:01:43;10.20;;;3.50;;
57085;SDS011;42964;42.910;23.792;2023-03-31T16:06:54;10.55;;;4.88;;
57085;SDS011;42964;42.910;23.792;2023-03-31T16:11:56;8.23;;;5.00;;
57085;SDS011;42964;42.910;23.792;2023-03-31T16:17:00;5.32;;;2.50;;
57085;SDS011;42964;42.910;23.792;2023-03-31T16:22:04;8.63;;;3.80;;
57085;SDS011;42964;42.910;23.792;2023-03-31T16:27:04;86.93;;;37.80;;
57085;SDS011;42964;42.910;23.792;2023-03-31T16:32:08;29.25;;;12.25;;
57085;SDS011;42964;42.910;23.792;2023-03-31T16:37:09;8.68;;;2.97;;
57085;SDS011;42964;42.910;23.792;2023-03-31T16:42:09;40.88;;;6.47;;
57085;SDS011;42964;42.910;23.792;2023-03-31T16:47:08;33.55;;;8.82;;
57085;SDS011;42964;42.910;23.792;2023-03-31T16:52:07;18.23;;;8.82;;
57085;SDS011;42964;42.910;23.792;2023-03-31T16:57:07;19.92;;;9.57;;
57085;SDS011;42964;42.910;23.792;2023-03-31T17:02:07;23.88;;;10.43;;
57085;SDS011;42964;42.910;23.792;2023-03-31T17:07:08;18.00;;;10.68;;
57085;SDS011;42964;42.910;23.792;2023-03-31T17:12:07;29.92;;;11.50;;
57085;SDS011;42964;42.910;23.792;2023-03-31T17:17:06;45.90;;;11.90;;
57085;SDS011;42964;42.910;23.792;2023-03-31T17:22:05;19.17;;;9.40;;
57085;SDS011;42964;42.910;23.792;2023-03-31T17:32:02;20.43;;;9.60;;
57085;SDS011;42964;42.910;23.792;2023-03-31T17:42:00;29.90;;;21.13;;
57085;SDS011;42964;42.910;23.792;2023-03-31T17:47:00;43.70;;;27.90;;
57085;SDS011;42964;42.910;23.792;2023-03-31T17:56:58;16.70;;;10.53;;
57085;SDS011;42964;42.910;23.792;2023-03-31T18:01:57;17.33;;;9.55;;
57085;SDS011;42964;42.910;23.792;2023-03-31T18:06:56;33.38;;;10.32;;
57085;SDS011;42964;42.910;23.792;2023-03-31T18:16:55;35.13;;;22.92;;
57085;SDS011;42964;42.910;23.792;2023-03-31T18:21:55;42.05;;;25.70;;
57085;SDS011;42964;42.910;23.792;2023-03-31T18:31:53;52.00;;;32.95;;
57085;SDS011;42964;42.910;23.792;2023-03-31T18:36:52;31.40;;;16.55;;
57085;SDS011;42964;42.910;23.792;2023-03-31T18:46:50;33.28;;;19.08;;
57085;SDS011;42964;42.910;23.792;2023-03-31T18:51:49;28.05;;;18.48;;
57085;SDS011;42964;42.910;23.792;2023-03-31T18:56:49;35.60;;;20.50;;
57085;SDS011;42964;42.910;23.792;2023-03-31T19:01:48;43.85;;;26.20;;
57085;SDS011;42964;42.910;23.792;2023-03-31T19:11:46;40.58;;;23.00;;
57085;SDS011;42964;42.910;23.792;2023-03-31T19:16:45;36.35;;;21.52;;
57085;SDS011;42964;42.910;23.792;2023-03-31T19:26:42;66.35;;;41.67;;
57085;SDS011;42964;42.910;23.792;2023-03-31T19:31:41;53.85;;;29.80;;
57085;SDS011;42964;42.910;23.792;2023-03-31T19:36:42;47.03;;;28.33;;
57085;SDS011;42964;42.910;23.792;2023-03-31T19:41:41;36.38;;;23.45;;
57085;SDS011;42964;42.910;23.792;2023-03-31T19:46:40;32.83;;;19.95;;
57085;SDS011;42964;42.910;23.792;2023-03-31T19:51:39;40.35;;;22.95;;
57085;SDS011;42964;42.910;23.792;2023-03-31T20:01:37;47.28;;;24.92;;
57085;SDS011;42964;42.910;23.792;2023-03-31T20:06:36;40.65;;;26.10;;
57085;SDS011;42964;42.910;23.792;2023-03-31T20:11:35;54.90;;;34.42;;
57085;SDS011;42964;42.910;23.792;2023-03-31T20:16:34;53.78;;;30.50;;
57085;SDS011;42964;42.910;23.792;2023-03-31T20:21:34;47.67;;;28.42;;
57085;SDS011;42964;42.910;23.792;2023-03-31T20:26:34;48.88;;;31.02;;
57085;SDS011;42964;42.910;23.792;2023-03-31T20:36:37;52.03;;;31.33;;
57085;SDS011;42964;42.910;23.792;2023-03-31T20:41:37;52.25;;;32.25;;
57085;SDS011;42964;42.910;23.792;2023-03-31T20:46:36;45.85;;;30.48;;
57085;SDS011;42964;42.910;23.792;2023-03-31T20:51:36;48.78;;;30.85;;
57085;SDS011;42964;42.910;23.792;2023-03-31T20:56:36;52.13;;;29.75;;
57085;SDS011;42964;42.910;23.792;2023-03-31T21:01:37;66.07;;;39.22;;
57085;SDS011;42964;42.910;23.792;2023-03-31T21:11:37;50.60;;;28.95;;
57085;SDS011;42964;42.910;23.792;2023-03-31T21:16:38;41.83;;;27.45;;
57085;SDS011;42964;42.910;23.792;2023-03-31T21:21:37;28.50;;;19.35;;
57085;SDS011;42964;42.910;23.792;2023-03-31T21:26:38;29.83;;;18.58;;
57085;SDS011;42964;42.910;23.792;2023-03-31T21:31:37;27.30;;;16.27;;
57085;SDS011;42964;42.910;23.792;2023-03-31T21:36:36;22.55;;;14.90;;
57085;SDS011;42964;42.910;23.792;2023-03-31T21:41:37;27.90;;;17.77;;
57085;SDS011;42964;42.910;23.792;2023-03-31T21:46:38;29.13;;;15.95;;
57085;SDS011;42964;42.910;23.792;2023-03-31T21:56:35;31.30;;;17.15;;
57085;SDS011;42964;42.910;23.792;2023-03-31T22:01:34;37.38;;;21.75;;
57085;SDS011;42964;42.910;23.792;2023-03-31T22:06:33;44.00;;;27.58;;
57085;SDS011;42964;42.910;23.792;2023-03-31T22:11:33;44.35;;;26.60;;
57085;SDS011;42964;42.910;23.792;2023-03-31T22:16:32;41.58;;;24.88;;
57085;SDS011;42964;42.910;23.792;2023-03-31T22:21:31;33.65;;;19.55;;
57085;SDS011;42964;42.910;23.792;2023-03-31T22:31:29;32.95;;;18.98;;
57085;SDS011;42964;42.910;23.792;2023-03-31T22:36:28;24.92;;;16.45;;
57085;SDS011;42964;42.910;23.792;2023-03-31T22:41:27;43.30;;;23.20;;
57085;SDS011;42964;42.910;23.792;2023-03-31T22:46:26;36.58;;;21.08;;
57085;SDS011;42964;42.910;23.792;2023-03-31T22:51:25;30.55;;;18.73;;
57085;SDS011;42964;42.910;23.792;2023-03-31T22:56:24;24.33;;;13.73;;
57085;SDS011;42964;42.910;23.792;2023-03-31T23:01:24;32.00;;;17.25;;
57085;SDS011;42964;42.910;23.792;2023-03-31T23:11:22;25.73;;;15.82;;
57085;SDS011;42964;42.910;23.792;2023-03-31T23:16:22;31.65;;;16.60;;
57085;SDS011;42964;42.910;23.792;2023-03-31T23:21:24;27.38;;;18.05;;
57085;SDS011;42964;42.910;23.792;2023-03-31T23:26:24;27.27;;;15.68;;
57085;SDS011;42964;42.910;23.792;2023-03-31T23:31:25;26.23;;;15.80;;
57085;SDS011;42964;42.910;23.792;2023-03-31T23:36:25;27.05;;;16.77;;
57085;SDS011;42964;42.910;23.792;2023-03-31T23:41:25;24.65;;;16.35;;
57085;SDS011;42964;42.910;23.792;2023-03-31T23:46:24;25.25;;;14.27;;
57085;SDS011;42964;42.910;23.792;2023-03-31T23:51:23;14.98;;;8.93;;
57085;SDS011;42964;42.910;23.792;2023-03-31T23:56:23;15.43;;;9.70;;
